FNBG METAR and TAF | Updated Today

FNBG METAR

Benguela Airport

Benguela Airport (FNBG) hasn't published a METAR.
We found the following current weather conditions for Docota from other sources.

Benguela Airport (FNBG) METAR

  • Weather conditions right now at FNBG:
  • Present conditions: Rain
  • Clouds: Moderate rain
  • Cloud cover: 100%
  • Wind: 225 at 6kts
  • Temperature: 25.3 celsius
  • Feels like: 26.1 celsius
  • Pressure: 1011mb
  • Humidity: 83%


Useful to know...

FNBG TAF

Benguela Airport

TAF FNBG 031100Z 0312/0324 28010KT 9999 SCT020 BECMG 0319/0321 22005KT
Observation time: 10:44 hr. ago
Need help? Read our tutorial on how to read TAFs or read the parsed version below.

Parsed version of TAF for Benguela Airport (FNBG)

  • From 03 December at 12:00 UTC, to day 03 of the month at 24:00 UTC
  • Clouds: Scattered at 610 meters
  • Visibility: Greater than 10 km
  • Wind: 280 degrees at 10
  • Expected to arise soon, from 03 December at 19:00 UTC, to day 03 of the month at 21:00 UTC
  • Wind: 220 degrees at 5